Aviation Digital Data Service (ADDS)

Output produced by METARs form (1935 UTC 23 January 2019)
found at http://www.aviationweather.gov/metar/data/
 
METAR text: RJCT 230734Z 00000KT 9999 -SHSN SCT020 BKN050 BKN100 M04/M09 Q1005 RMK 3CU020 6CU050 7AC100 A2970
Conditions at: RJCT (TOKACHI (JGSDF) , JP) observed 0734 UTC 23 January 2019
Temperature: -4.0°C (25°F)
Dewpoint: -9.0°C (16°F) [RH = 68%]
Pressure (altimeter): 29.68 inches Hg (1005.0 mb)
Winds: calm
Visibility: 6 or more miles (10+ km)
Ceiling: 5000 feet AGL
Clouds: scattered clouds at 2000 feet AGL
broken clouds at 5000 feet AGL
broken clouds at 10000 feet AGL
Weather: -SHSN  (light snow showers)